createdAt,value
2019-03-21T00:02:13.519Z,3.73
2019-03-21T00:04:42.524Z,2.27
2019-03-21T00:07:11.245Z,1.37
2019-03-21T00:09:41.499Z,1.10
2019-03-21T00:12:10.554Z,1.40
2019-03-21T00:14:49.990Z,1.73
2019-03-21T00:17:19.529Z,3.40
2019-03-21T00:19:48.229Z,1.67
2019-03-21T00:22:16.879Z,1.33
2019-03-21T00:24:45.561Z,2.93
2019-03-21T00:27:14.288Z,1.47
2019-03-21T00:29:43.041Z,2.30
2019-03-21T00:32:11.702Z,1.80
2019-03-21T00:34:40.428Z,3.27
2019-03-21T00:37:09.208Z,1.83
2019-03-21T00:39:38.155Z,1.93
2019-03-21T00:42:06.849Z,1.70
2019-03-21T00:44:35.546Z,2.40
2019-03-21T00:47:04.519Z,2.30
2019-03-21T00:49:33.244Z,1.07
2019-03-21T00:52:01.938Z,1.43
2019-03-21T00:54:30.585Z,1.47
2019-03-21T00:56:59.207Z,2.13
2019-03-21T00:59:28.155Z,1.40
2019-03-21T01:01:56.803Z,2.37
2019-03-21T01:04:27.360Z,1.27
2019-03-21T01:06:56.351Z,4.00
2019-03-21T01:09:25.252Z,1.10
2019-03-21T01:11:53.968Z,3.80
2019-03-21T01:14:29.848Z,1.83
2019-03-21T01:16:53.126Z,1.30
2019-03-21T01:19:21.788Z,1.70
2019-03-21T01:21:50.518Z,1.73
2019-03-21T01:24:19.594Z,3.87
2019-03-21T01:26:48.245Z,2.30
2019-03-21T01:29:16.932Z,2.20
2019-03-21T01:31:45.674Z,1.27
2019-03-21T01:34:14.338Z,1.90
2019-03-21T01:36:43.019Z,1.83
2019-03-21T01:39:11.680Z,2.53
2019-03-21T01:41:40.749Z,1.30
2019-03-21T01:44:09.408Z,1.37
2019-03-21T01:46:38.143Z,1.20
2019-03-21T01:49:06.791Z,1.97
2019-03-21T01:51:35.769Z,2.30
2019-03-21T01:54:05.069Z,0.90
2019-03-21T01:56:33.726Z,1.30
2019-03-21T01:59:02.414Z,1.33
2019-03-21T02:01:31.302Z,1.17
2019-03-21T02:03:59.969Z,1.20
2019-03-21T02:06:29.020Z,1.47
2019-03-21T02:08:57.668Z,2.20
2019-03-21T02:11:26.337Z,2.60
2019-03-21T02:13:54.985Z,1.50
2019-03-21T02:16:23.639Z,1.50
2019-03-21T02:18:52.273Z,1.50
2019-03-21T02:21:21.198Z,2.30
2019-03-21T02:23:49.844Z,1.43
2019-03-21T02:26:18.496Z,2.30
2019-03-21T02:28:47.222Z,1.23
2019-03-21T02:31:16.025Z,1.30
2019-03-21T02:33:44.829Z,3.07
2019-03-21T02:36:13.564Z,1.67
2019-03-21T02:38:42.590Z,4.50
2019-03-21T02:41:11.385Z,1.97
2019-03-21T02:43:40.065Z,3.97
2019-03-21T02:46:08.737Z,1.37
2019-03-21T02:48:37.521Z,2.00
2019-03-21T02:51:06.644Z,1.93
2019-03-21T02:53:35.389Z,1.73
2019-03-21T02:56:04.812Z,2.57
2019-03-21T02:58:33.728Z,1.93
2019-03-21T03:01:02.716Z,4.33
2019-03-21T03:03:31.365Z,3.70
2019-03-21T03:06:00.006Z,4.20
2019-03-21T03:08:28.665Z,1.27
2019-03-21T03:10:57.805Z,4.00
2019-03-21T03:13:26.459Z,1.43
2019-03-21T03:15:55.255Z,3.60
2019-03-21T03:18:24.001Z,1.33
2019-03-21T03:20:52.778Z,1.43
2019-03-21T03:23:21.547Z,1.10
2019-03-21T03:25:51.388Z,1.30
2019-03-21T03:28:21.376Z,1.27
2019-03-21T03:30:50.625Z,2.67
2019-03-21T03:33:19.655Z,1.27
2019-03-21T03:35:48.676Z,2.07
2019-03-21T03:38:17.445Z,1.37
2019-03-21T03:40:47.354Z,1.30
2019-03-21T03:43:16.094Z,1.77
2019-03-21T03:45:44.833Z,1.50
2019-03-21T03:48:14.332Z,1.47
2019-03-21T03:50:43.063Z,1.20
2019-03-21T03:53:12.066Z,1.73
2019-03-21T03:55:40.786Z,2.00
2019-03-21T03:58:10.680Z,2.47
2019-03-21T04:00:39.436Z,1.57
2019-03-21T04:03:08.105Z,2.50
2019-03-21T04:05:36.841Z,2.10
2019-03-21T04:08:05.658Z,1.23
2019-03-21T04:10:35.246Z,1.27
2019-03-21T04:13:03.987Z,1.23
2019-03-21T04:15:32.781Z,2.47
2019-03-21T04:18:01.525Z,1.30
2019-03-21T04:20:30.924Z,2.60
2019-03-21T04:22:59.998Z,2.20
2019-03-21T04:25:30.684Z,1.17
2019-03-21T04:27:59.425Z,1.30
2019-03-21T04:30:28.381Z,1.90
2019-03-21T04:32:57.151Z,2.57
2019-03-21T04:35:26.082Z,0.90
2019-03-21T04:37:54.839Z,1.17
2019-03-21T04:40:23.501Z,1.20
2019-03-21T04:42:52.168Z,1.33
2019-03-21T04:45:20.948Z,1.30
2019-03-21T04:47:49.683Z,1.50
2019-03-21T04:50:19.717Z,1.70
2019-03-21T04:52:48.657Z,1.10
2019-03-21T04:55:17.597Z,1.40
2019-03-21T04:57:46.260Z,3.77
2019-03-21T05:00:16.310Z,1.53
2019-03-21T05:02:45.173Z,1.43
2019-03-21T05:05:13.909Z,2.00
2019-03-21T05:07:42.580Z,2.03
2019-03-21T05:10:11.676Z,2.20
2019-03-21T05:12:40.775Z,3.13
2019-03-21T05:15:11.102Z,6.00
2019-03-21T05:17:39.803Z,13.87
2019-03-21T05:20:09.790Z,8.03
2019-03-21T05:22:38.495Z,6.43
2019-03-21T05:25:08.584Z,5.03
2019-03-21T05:27:37.380Z,10.87
2019-03-21T05:30:06.991Z,7.30
2019-03-21T05:32:35.969Z,6.30
2019-03-21T05:35:05.012Z,7.47
2019-03-21T05:37:33.944Z,2.80
2019-03-21T05:40:02.660Z,6.70
2019-03-21T05:42:31.323Z,6.97
2019-03-21T05:44:59.974Z,5.90
2019-03-21T05:47:28.922Z,5.33
2019-03-21T05:49:58.898Z,6.83
2019-03-21T05:52:27.761Z,3.80
2019-03-21T05:54:56.658Z,7.60
2019-03-21T05:57:37.813Z,3.00
2019-03-21T06:00:08.817Z,3.40
2019-03-21T06:02:37.811Z,3.20
2019-03-21T06:05:06.590Z,3.93
2019-03-21T06:07:37.892Z,2.77
2019-03-21T06:10:07.926Z,10.60
2019-03-21T06:12:41.815Z,4.03
2019-03-21T06:15:11.160Z,9.07
2019-03-21T06:17:39.858Z,9.30
2019-03-21T06:20:17.097Z,14.63
2019-03-21T06:23:00.470Z,8.80
2019-03-21T06:25:48.092Z,11.30
2019-03-21T06:28:16.985Z,11.60
2019-03-21T06:30:45.702Z,6.97
2019-03-21T06:33:14.631Z,4.30
2019-03-21T06:35:43.361Z,5.13
2019-03-21T06:38:11.970Z,2.83
2019-03-21T06:40:40.712Z,5.50
2019-03-21T06:43:09.356Z,5.60
2019-03-21T06:45:47.521Z,2.80
2019-03-21T06:48:08.437Z,5.53
2019-03-21T06:50:37.068Z,6.30
2019-03-21T06:53:05.772Z,4.70
2019-03-21T06:55:35.245Z,5.80
2019-03-21T06:58:04.194Z,2.37
2019-03-21T07:00:32.859Z,4.40
2019-03-21T07:03:01.784Z,4.33
2019-03-21T07:05:30.437Z,5.10
2019-03-21T07:07:59.128Z,6.07
2019-03-21T07:10:27.791Z,2.93
2019-03-21T07:12:56.756Z,5.10
2019-03-21T07:15:25.461Z,7.47
2019-03-21T07:17:54.185Z,4.73
2019-03-21T07:20:22.839Z,2.83
2019-03-21T07:22:51.535Z,7.50
2019-03-21T07:25:20.579Z,4.60
2019-03-21T07:27:49.533Z,4.97
2019-03-21T07:30:18.363Z,6.00
2019-03-21T07:32:47.080Z,2.80
2019-03-21T07:35:15.727Z,5.93
2019-03-21T07:37:44.402Z,5.20
2019-03-21T07:42:48.830Z,7.03
2019-03-21T07:45:17.732Z,3.23
2019-03-21T07:47:46.386Z,3.50
2019-03-21T07:50:15.260Z,4.50
2019-03-21T07:52:44.024Z,2.30
2019-03-21T07:55:13.411Z,4.10
2019-03-21T07:57:42.434Z,2.93
2019-03-21T08:00:12.010Z,5.53
2019-03-21T08:02:40.645Z,1.77
2019-03-21T08:05:09.887Z,2.30
2019-03-21T08:07:38.621Z,5.80
2019-03-21T08:10:07.939Z,2.20
2019-03-21T08:12:36.712Z,3.00
2019-03-21T08:15:06.293Z,2.60
2019-03-21T08:17:34.913Z,2.40
2019-03-21T08:20:04.036Z,40.47
2019-03-21T08:22:32.931Z,93.83
2019-03-21T08:25:01.858Z,71.83
2019-03-21T08:27:30.858Z,75.23
2019-03-21T08:29:59.493Z,62.87
2019-03-21T08:32:28.180Z,40.20
2019-03-21T08:34:57.073Z,50.57
2019-03-21T08:37:26.146Z,45.37
2019-03-21T08:39:54.800Z,52.73
2019-03-21T08:42:23.783Z,46.57
2019-03-21T08:44:52.484Z,30.70
2019-03-21T08:47:21.141Z,31.90
2019-03-21T08:49:49.803Z,28.30
2019-03-21T08:52:18.485Z,33.67
2019-03-21T08:54:47.138Z,37.23
2019-03-21T08:57:15.808Z,33.37
2019-03-21T08:59:44.543Z,28.67
2019-03-21T09:02:13.296Z,35.23
2019-03-21T09:04:42.192Z,23.63
2019-03-21T09:07:11.173Z,24.23
2019-03-21T09:09:39.819Z,22.70
2019-03-21T09:12:08.552Z,16.30
2019-03-21T09:14:37.523Z,22.93
2019-03-21T09:17:06.215Z,21.20
2019-03-21T09:19:34.849Z,24.03
2019-03-21T09:22:03.595Z,20.37
2019-03-21T09:24:32.229Z,21.97
2019-03-21T09:27:00.961Z,18.57
2019-03-21T09:29:29.605Z,18.90
2019-03-21T09:31:58.356Z,19.83
2019-03-21T09:34:26.993Z,17.30
2019-03-21T09:36:55.715Z,21.17
2019-03-21T09:39:24.365Z,19.73
2019-03-21T09:41:53.058Z,17.40
2019-03-21T09:44:26.098Z,17.10
2019-03-21T09:46:54.825Z,15.17
2019-03-21T09:49:23.472Z,20.27
2019-03-21T09:51:52.220Z,16.40
2019-03-21T09:54:21.107Z,17.27
2019-03-21T09:56:49.841Z,15.20
2019-03-21T09:59:18.786Z,18.63
2019-03-21T10:01:47.511Z,14.20
2019-03-21T10:04:16.774Z,15.27
2019-03-21T10:06:45.699Z,13.47
2019-03-21T10:09:14.603Z,14.13
2019-03-21T10:11:43.337Z,8.77
2019-03-21T10:14:12.007Z,14.13
2019-03-21T10:16:40.674Z,12.43
2019-03-21T10:19:09.338Z,9.93
2019-03-21T10:21:43.322Z,17.33
2019-03-21T10:24:08.376Z,11.53
2019-03-21T10:26:37.116Z,12.20
2019-03-21T10:29:06.088Z,11.00
2019-03-21T10:31:35.019Z,8.67
2019-03-21T10:34:03.793Z,12.20
2019-03-21T10:36:32.562Z,7.70
2019-03-21T10:39:01.195Z,9.67
2019-03-21T10:41:29.904Z,6.37
2019-03-21T10:43:59.217Z,7.50
2019-03-21T10:46:27.957Z,7.83
2019-03-21T10:48:56.629Z,10.03
2019-03-21T10:51:25.289Z,7.80
2019-03-21T10:53:54.026Z,8.00
2019-03-21T10:56:23.106Z,9.23
2019-03-21T10:58:51.737Z,8.20
2019-03-21T11:01:20.464Z,7.93
2019-03-21T11:03:49.369Z,7.20
2019-03-21T11:06:18.334Z,5.90
2019-03-21T11:08:47.013Z,7.70
2019-03-21T11:11:16.018Z,4.63
2019-03-21T11:13:44.665Z,7.30
2019-03-21T11:16:13.376Z,4.40
2019-03-21T11:18:42.417Z,7.30
2019-03-21T11:21:11.059Z,8.10
2019-03-21T11:23:39.768Z,4.27
2019-03-21T11:26:08.530Z,7.50
2019-03-21T11:28:37.405Z,4.47
2019-03-21T11:31:06.032Z,4.57
2019-03-21T11:33:35.260Z,5.83
2019-03-21T11:36:03.956Z,3.23
2019-03-21T11:38:32.696Z,4.60
2019-03-21T11:41:01.661Z,5.60
2019-03-21T11:43:30.657Z,3.40
2019-03-21T11:45:59.536Z,4.07
2019-03-21T11:48:28.438Z,6.90
2019-03-21T11:50:57.059Z,4.63
2019-03-21T11:53:25.721Z,5.67
2019-03-21T11:55:54.370Z,5.20
2019-03-21T11:58:23.398Z,6.27
2019-03-21T12:00:52.028Z,4.70
2019-03-21T12:03:20.730Z,3.30
2019-03-21T12:05:49.391Z,2.90
2019-03-21T12:08:18.080Z,3.57
2019-03-21T12:10:46.734Z,6.13
2019-03-21T12:13:15.402Z,4.00
2019-03-21T12:15:44.116Z,8.03
2019-03-21T12:18:12.782Z,2.40
2019-03-21T12:20:41.489Z,3.77
2019-03-21T12:23:10.161Z,4.00
2019-03-21T12:25:38.836Z,2.47
2019-03-21T12:28:07.564Z,7.37
2019-03-21T12:30:45.348Z,3.80
2019-03-21T12:33:14.102Z,2.07
2019-03-21T12:35:43.073Z,2.10
2019-03-21T12:38:11.782Z,3.50
2019-03-21T12:40:40.518Z,4.40
2019-03-21T12:43:09.668Z,7.00
2019-03-21T12:45:38.371Z,4.77
2019-03-21T12:48:07.088Z,4.10
2019-03-21T12:50:35.717Z,4.03
2019-03-21T12:53:04.803Z,6.77
2019-03-21T12:55:33.460Z,9.20
2019-03-21T12:58:02.454Z,9.27
2019-03-21T13:00:38.041Z,10.10
2019-03-21T13:03:06.759Z,9.63
2019-03-21T13:05:35.463Z,13.63
2019-03-21T13:08:04.729Z,10.03
2019-03-21T13:10:33.378Z,12.37
2019-03-21T13:13:02.069Z,12.40
2019-03-21T13:15:31.152Z,16.23
2019-03-21T13:18:00.528Z,14.63
2019-03-21T13:20:29.509Z,13.40
2019-03-21T13:22:58.239Z,15.60
2019-03-21T13:25:26.969Z,11.73
2019-03-21T13:27:56.291Z,12.27
2019-03-21T13:30:25.001Z,15.23
2019-03-21T13:32:53.684Z,7.57
2019-03-21T13:35:32.063Z,17.33
2019-03-21T13:37:53.994Z,14.43
2019-03-21T13:40:23.627Z,14.40
2019-03-21T13:42:52.352Z,15.57
2019-03-21T13:45:21.125Z,16.03
2019-03-21T13:47:50.093Z,14.57
2019-03-21T13:50:18.754Z,15.00
2019-03-21T13:52:47.387Z,17.00
2019-03-21T13:55:16.356Z,15.63
2019-03-21T13:57:45.054Z,13.07
2019-03-21T14:00:15.047Z,12.50
2019-03-21T14:02:43.729Z,13.60
2019-03-21T14:05:12.482Z,12.73
2019-03-21T14:07:41.200Z,11.93
2019-03-21T14:10:09.924Z,14.20
2019-03-21T14:12:38.671Z,15.33
2019-03-21T14:15:08.051Z,10.47
2019-03-21T14:17:37.109Z,13.03
2019-03-21T14:20:06.214Z,9.33
2019-03-21T14:22:34.864Z,11.73
2019-03-21T14:25:03.781Z,13.33
2019-03-21T14:27:32.625Z,9.07
2019-03-21T14:30:02.337Z,14.20
2019-03-21T14:32:31.253Z,16.17
2019-03-21T14:34:59.907Z,14.97
2019-03-21T14:37:28.546Z,12.43
2019-03-21T14:39:57.188Z,15.27
2019-03-21T14:42:25.854Z,10.30
2019-03-21T14:44:54.585Z,16.40
2019-03-21T14:47:23.267Z,11.70
2019-03-21T14:49:53.153Z,8.10
2019-03-21T14:52:22.052Z,12.87
2019-03-21T14:54:50.778Z,9.80
2019-03-21T14:57:19.490Z,9.97
2019-03-21T14:59:48.133Z,13.40
2019-03-21T15:02:16.910Z,13.90
2019-03-21T15:04:45.542Z,9.20
2019-03-21T15:07:14.327Z,7.27
2019-03-21T15:09:43.361Z,12.40
2019-03-21T15:12:12.094Z,6.60
2019-03-21T15:14:41.223Z,11.30
2019-03-21T15:17:09.959Z,13.23
2019-03-21T15:19:39.396Z,11.40
2019-03-21T15:22:08.107Z,7.57
2019-03-21T15:24:36.736Z,8.13
2019-03-21T15:27:05.520Z,7.23
2019-03-21T15:29:35.510Z,11.87
2019-03-21T15:32:04.472Z,6.80
2019-03-21T15:34:33.213Z,8.57
2019-03-21T15:37:01.839Z,10.43
2019-03-21T15:39:30.772Z,6.97
2019-03-21T15:41:59.778Z,6.00
2019-03-21T15:44:28.439Z,10.40
2019-03-21T15:46:57.131Z,6.10
2019-03-21T15:49:26.021Z,6.90
2019-03-21T15:51:54.675Z,7.10
2019-03-21T15:54:23.421Z,8.53
2019-03-21T15:56:52.080Z,7.90
2019-03-21T15:59:20.758Z,5.53
2019-03-21T16:01:49.407Z,4.20
2019-03-21T16:04:18.277Z,6.57
2019-03-21T16:06:46.963Z,7.53
2019-03-21T16:09:15.610Z,7.80
2019-03-21T16:11:44.369Z,6.13
2019-03-21T16:14:13.324Z,13.07
2019-03-21T16:16:41.980Z,5.47
2019-03-21T16:19:10.690Z,4.83
2019-03-21T16:21:39.424Z,7.20
2019-03-21T16:24:08.138Z,9.60
2019-03-21T16:26:37.050Z,4.27
2019-03-21T16:29:05.887Z,5.80
2019-03-21T16:31:34.549Z,4.53
2019-03-21T16:34:03.283Z,8.63
2019-03-21T16:36:32.202Z,4.67
2019-03-21T16:39:00.832Z,5.73
2019-03-21T16:41:29.498Z,5.83
2019-03-21T16:43:58.376Z,4.73
2019-03-21T16:46:27.112Z,6.00
2019-03-21T16:48:55.768Z,3.50
2019-03-21T16:51:24.513Z,6.07
2019-03-21T16:53:53.462Z,5.53
2019-03-21T16:56:22.577Z,5.20
2019-03-21T16:58:51.473Z,4.47
2019-03-21T17:01:20.218Z,6.60
2019-03-21T17:03:48.925Z,3.67
2019-03-21T17:06:17.593Z,4.40
2019-03-21T17:08:46.308Z,5.63
2019-03-21T17:11:14.990Z,4.33
2019-03-21T17:13:44.090Z,3.57
2019-03-21T17:16:12.782Z,3.27
2019-03-21T17:18:41.414Z,5.00
2019-03-21T17:21:10.143Z,4.00
2019-03-21T17:23:39.164Z,4.93
2019-03-21T17:26:07.906Z,4.03
2019-03-21T17:28:36.541Z,3.83
2019-03-21T17:31:05.310Z,5.67
2019-03-21T17:33:33.969Z,3.63
2019-03-21T17:36:02.621Z,2.80
2019-03-21T17:38:31.291Z,4.47
2019-03-21T17:40:59.936Z,1.87
2019-03-21T17:43:29.167Z,3.83
2019-03-21T17:45:57.924Z,5.83
2019-03-21T17:48:26.660Z,4.27
2019-03-21T17:50:55.462Z,3.30
2019-03-21T17:53:25.404Z,11.70
2019-03-21T17:55:54.080Z,8.87
2019-03-21T17:58:22.814Z,8.33
2019-03-21T18:00:51.675Z,5.07
2019-03-21T18:03:20.645Z,5.93
2019-03-21T18:05:49.355Z,8.33
2019-03-21T18:08:18.004Z,4.57
2019-03-21T18:10:46.764Z,7.20
2019-03-21T18:13:15.502Z,4.60
2019-03-21T18:15:44.136Z,6.70
2019-03-21T18:18:13.079Z,3.63
2019-03-21T18:20:41.863Z,6.27
2019-03-21T18:23:10.585Z,3.10
2019-03-21T18:25:39.284Z,8.50
2019-03-21T18:28:08.942Z,7.30
2019-03-21T18:30:38.097Z,9.30
2019-03-21T18:33:07.075Z,4.90
2019-03-21T18:35:35.806Z,5.97
2019-03-21T18:38:30.672Z,2.93
2019-03-21T18:40:59.313Z,6.33
2019-03-21T18:43:27.968Z,6.60
2019-03-21T18:45:56.767Z,4.60
2019-03-21T18:48:25.424Z,4.10
2019-03-21T18:50:54.421Z,4.30
2019-03-21T18:53:23.209Z,3.43
2019-03-21T18:55:51.898Z,5.30
2019-03-21T18:58:20.641Z,5.70
2019-03-21T19:00:49.336Z,4.30
2019-03-21T19:03:17.984Z,3.03
2019-03-21T19:05:46.642Z,2.20
2019-03-21T19:08:15.298Z,2.63
2019-03-21T19:10:43.931Z,3.73
2019-03-21T19:13:12.847Z,6.40
2019-03-21T19:15:41.567Z,6.60
2019-03-21T19:18:10.240Z,5.00
2019-03-21T19:20:38.923Z,4.87
2019-03-21T19:23:07.597Z,5.37
2019-03-21T19:25:36.483Z,17.17
2019-03-21T19:28:05.216Z,9.60
2019-03-21T19:30:34.410Z,7.20
2019-03-21T19:33:03.080Z,26.87
2019-03-21T19:35:31.847Z,18.63
2019-03-21T19:38:00.571Z,16.87
2019-03-21T19:40:29.208Z,20.83
2019-03-21T19:42:57.859Z,12.80
2019-03-21T19:45:27.000Z,13.73
2019-03-21T19:47:55.660Z,12.27
2019-03-21T19:50:24.403Z,9.93
2019-03-21T19:52:53.057Z,11.83
2019-03-21T19:55:30.963Z,8.53
2019-03-21T19:58:12.997Z,7.20
2019-03-21T20:00:41.807Z,15.47
2019-03-21T20:03:10.555Z,6.43
2019-03-21T20:05:39.432Z,10.57
2019-03-21T20:08:08.153Z,11.70
2019-03-21T20:10:37.328Z,15.37
2019-03-21T20:13:06.280Z,5.50
2019-03-21T20:15:35.250Z,11.77
2019-03-21T20:18:04.011Z,6.47
2019-03-21T20:20:32.733Z,5.67
2019-03-21T20:23:01.444Z,3.10
2019-03-21T20:25:41.943Z,8.30
2019-03-21T20:28:00.547Z,5.93
2019-03-21T20:30:29.223Z,4.23
2019-03-21T20:32:57.883Z,5.37
2019-03-21T20:35:26.814Z,8.53
2019-03-21T20:37:55.480Z,3.80
2019-03-21T20:40:24.183Z,4.90
2019-03-21T20:42:52.866Z,8.17
2019-03-21T20:45:21.593Z,4.20
2019-03-21T20:47:50.252Z,4.40
2019-03-21T20:50:18.975Z,5.50
2019-03-21T20:52:47.721Z,3.30
2019-03-21T20:55:16.436Z,5.20
2019-03-21T20:57:45.405Z,3.33
2019-03-21T21:00:15.753Z,4.83
2019-03-21T21:02:44.509Z,3.17
2019-03-21T21:05:13.569Z,4.47
2019-03-21T21:07:42.275Z,6.20
2019-03-21T21:10:11.459Z,2.30
2019-03-21T21:12:40.372Z,2.33
2019-03-21T21:15:09.119Z,4.30
2019-03-21T21:17:38.065Z,3.83
2019-03-21T21:20:07.892Z,4.80
2019-03-21T21:22:36.526Z,3.80
2019-03-21T21:25:05.656Z,4.30
2019-03-21T21:27:34.432Z,4.17
2019-03-21T21:30:03.470Z,9.87
2019-03-21T21:32:32.108Z,3.60
2019-03-21T21:35:02.488Z,1.47
2019-03-21T21:37:31.458Z,5.00
2019-03-21T21:40:00.398Z,3.53
2019-03-21T21:42:29.429Z,4.60
2019-03-21T21:44:58.484Z,3.00
2019-03-21T21:47:27.135Z,5.33
2019-03-21T21:49:55.885Z,2.37
2019-03-21T21:52:24.613Z,9.30
2019-03-21T21:54:53.336Z,4.30
2019-03-21T21:57:22.093Z,4.03
2019-03-21T21:59:52.872Z,3.30
2019-03-21T22:02:21.691Z,2.90
2019-03-21T22:04:50.433Z,2.30
2019-03-21T22:07:19.186Z,2.00
2019-03-21T22:09:47.867Z,3.43
2019-03-21T22:12:16.544Z,4.63
2019-03-21T22:14:45.441Z,3.87
2019-03-21T22:17:14.089Z,3.33
2019-03-21T22:19:42.740Z,4.13
2019-03-21T22:22:11.385Z,4.73
2019-03-21T22:24:40.060Z,1.93
2019-03-21T22:27:08.969Z,2.10
2019-03-21T22:29:37.746Z,3.50
2019-03-21T22:32:06.457Z,4.37
2019-03-21T22:34:51.590Z,2.43
2019-03-21T22:37:20.581Z,5.33
2019-03-21T22:39:49.218Z,4.50
2019-03-21T22:42:18.113Z,4.27
2019-03-21T22:44:46.767Z,3.20
2019-03-21T22:47:15.437Z,3.70
2019-03-21T22:49:44.315Z,3.17
2019-03-21T22:52:12.999Z,4.53
2019-03-21T22:54:41.938Z,5.07
2019-03-21T22:57:10.926Z,3.43
2019-03-21T22:59:39.663Z,5.10
2019-03-21T23:02:08.427Z,1.50
2019-03-21T23:04:37.079Z,2.37
2019-03-21T23:07:05.736Z,2.97
2019-03-21T23:09:34.477Z,5.70
2019-03-21T23:12:03.134Z,2.30
2019-03-21T23:14:32.020Z,1.90
2019-03-21T23:17:00.692Z,3.73
2019-03-21T23:19:29.366Z,2.23
2019-03-21T23:21:58.358Z,3.03
2019-03-21T23:24:27.084Z,6.10
2019-03-21T23:26:55.823Z,2.50
2019-03-21T23:29:24.495Z,3.27
2019-03-21T23:31:53.565Z,2.70
2019-03-21T23:34:22.233Z,4.67
2019-03-21T23:36:50.970Z,2.50
2019-03-21T23:39:19.696Z,4.07
2019-03-21T23:41:48.371Z,3.77
2019-03-21T23:44:17.283Z,2.70
2019-03-21T23:46:45.952Z,1.50
2019-03-21T23:49:14.604Z,2.40
2019-03-21T23:51:43.339Z,3.60
2019-03-21T23:54:12.016Z,2.03
2019-03-21T23:56:40.716Z,2.80
2019-03-21T23:59:09.713Z,1.50
